Time;durP1;ratioP1;P1;durP2;ratioP2;P2;SDS_P1;SDS_P2;PMS_P1;PMS_P2;Temp;Humidity;BMP_temperature;BMP_pressure;BME280_temperature;BME280_humidity;BME280_pressure;Samples;Min_cycle;Max_cycle;Signal;HPM_P1;HPM_P2
2023/11/08 00:03:18;;;;;;;;;;;;;;;5.77;100.00;95818.63;10571675;27;2659;-73
2023/11/08 00:08:20;;;;;;;;;;;;;;;5.66;100.00;95822.16;10560244;27;2604;-71
2023/11/08 00:13:23;;;;;;;;;;;;;;;5.57;100.00;95824.41;10563632;27;2685;-71
2023/11/08 00:18:26;;;;;;;;;;;;;;;5.48;100.00;95822.41;10566470;27;2646;-72
2023/11/08 00:23:30;;;;;;;;;;;;;;;5.46;100.00;95827.94;10560042;27;2609;-72
2023/11/08 00:28:32;;;;;;;;;;;;;;;5.37;100.00;95838.19;10562761;27;2573;-72
2023/11/08 00:33:35;;;;;;;;;;;;;;;5.21;100.00;95838.16;10569961;27;2688;-71
2023/11/08 00:38:38;;;;;;;;;;;;;;;5.14;100.00;95851.63;10564913;28;2689;-73
2023/11/08 00:43:41;;;;;;;;;;;;;;;5.17;100.00;95859.16;10562812;28;4895;-73
2023/11/08 00:48:43;;;;;;;;;;;;;;;5.09;100.00;95854.16;10543455;28;2789;-76
2023/11/08 00:53:46;;;;;;;;;;;;;;;5.07;100.00;95858.94;10565592;28;2708;-73
2023/11/08 00:58:48;;;;;;;;;;;;;;;5.10;100.00;95858.47;10569831;27;2565;-72
2023/11/08 01:03:50;;;;;;;;;;;;;;;5.07;100.00;95856.28;10579262;27;2627;-74
2023/11/08 01:08:53;;;;;;;;;;;;;;;4.85;100.00;95862.25;10577771;27;2775;-72
2023/11/08 01:13:56;;;;;;;;;;;;;;;4.84;100.00;95859.81;10575355;27;2636;-72
2023/11/08 01:18:58;;;;;;;;;;;;;;;4.81;100.00;95862.94;10570622;27;2585;-72
2023/11/08 01:24:01;;;;;;;;;;;;;;;4.71;100.00;95858.22;10575860;27;2631;-72
2023/11/08 01:29:03;;;;;;;;;;;;;;;4.81;100.00;95857.63;10555422;27;2516;-72
2023/11/08 01:34:06;;;;;;;;;;;;;;;4.87;100.00;95852.16;10570014;27;2623;-73
2023/11/08 01:39:09;;;;;;;;;;;;;;;4.88;100.00;95840.44;10569616;27;2970;-73
2023/11/08 01:44:12;;;;;;;;;;;;;;;4.96;100.00;95838.47;10570141;27;4860;-72
2023/11/08 01:49:15;;;;;;;;;;;;;;;5.01;100.00;95842.03;10572040;27;2609;-71
2023/11/08 01:54:19;;;;;;;;;;;;;;;4.99;100.00;95832.69;10574866;27;2548;-71
2023/11/08 01:59:24;;;;;;;;;;;;;;;4.91;100.00;95838.38;10573355;27;2693;-73
2023/11/08 02:04:26;;;;;;;;;;;;;;;4.91;100.00;95833.88;10558562;27;2619;-71
2023/11/08 02:09:29;;;;;;;;;;;;;;;4.83;100.00;95835.03;10565053;27;2603;-74
2023/11/08 02:14:31;;;;;;;;;;;;;;;4.85;100.00;95837.47;10575740;27;2613;-74
2023/11/08 02:19:33;;;;;;;;;;;;;;;4.94;100.00;95833.38;10573392;27;2529;-73
2023/11/08 02:24:36;;;;;;;;;;;;;;;4.95;100.00;95826.19;10567294;27;2620;-71
2023/11/08 02:29:39;;;;;;;;;;;;;;;5.01;100.00;95833.25;10566182;27;2741;-72
2023/11/08 02:34:41;;;;;;;;;;;;;;;4.99;100.00;95832.69;10567707;27;2604;-71
2023/11/08 02:39:44;;;;;;;;;;;;;;;4.81;100.00;95826.47;10571279;27;2634;-71
2023/11/08 02:44:46;;;;;;;;;;;;;;;4.76;100.00;95829.03;10561473;27;4972;-73
2023/11/08 02:49:49;;;;;;;;;;;;;;;4.95;100.00;95820.88;10567885;27;2745;-72
2023/11/08 02:54:52;;;;;;;;;;;;;;;5.00;100.00;95819.13;10565906;27;2585;-71
2023/11/08 02:59:54;;;;;;;;;;;;;;;5.14;100.00;95807.13;10543845;27;2680;-71
2023/11/08 03:04:57;;;;;;;;;;;;;;;5.24;100.00;95808.38;10561827;27;2939;-72
2023/11/08 03:10:01;;;;;;;;;;;;;;;5.29;100.00;95819.94;10569174;27;2650;-72
2023/11/08 03:15:04;;;;;;;;;;;;;;;5.28;100.00;95815.66;10566231;27;2540;-72
2023/11/08 03:20:08;;;;;;;;;;;;;;;5.19;100.00;95821.59;10545174;27;2894;-72
2023/11/08 03:25:13;;;;;;;;;;;;;;;4.96;100.00;95833.94;10562178;27;2669;-71
2023/11/08 03:30:16;;;;;;;;;;;;;;;4.82;100.00;95836.06;10567806;27;2616;-75
2023/11/08 03:35:20;;;;;;;;;;;;;;;4.76;100.00;95846.84;10565678;27;2636;-73
2023/11/08 03:40:23;;;;;;;;;;;;;;;4.68;100.00;95845.38;10563861;27;2718;-72
2023/11/08 03:45:25;;;;;;;;;;;;;;;4.65;100.00;95837.88;10562829;27;4823;-73
2023/11/08 03:50:28;;;;;;;;;;;;;;;4.58;100.00;95842.47;10564282;27;2591;-72
2023/11/08 03:55:30;;;;;;;;;;;;;;;4.55;100.00;95837.63;10564202;27;2584;-71
2023/11/08 04:00:33;;;;;;;;;;;;;;;4.56;100.00;95844.56;10576591;27;2707;-70
2023/11/08 04:05:36;;;;;;;;;;;;;;;4.49;100.00;95838.56;10569354;27;2550;-69
2023/11/08 04:10:39;;;;;;;;;;;;;;;4.51;100.00;95841.81;10566917;27;2592;-72
2023/11/08 04:15:41;;;;;;;;;;;;;;;4.54;100.00;95838.69;10559751;27;2578;-73
2023/11/08 04:20:44;;;;;;;;;;;;;;;4.61;100.00;95837.50;10553467;27;2573;-72
2023/11/08 04:25:49;;;;;;;;;;;;;;;4.74;100.00;95840.97;10555516;27;2734;-72
2023/11/08 04:30:52;;;;;;;;;;;;;;;4.99;100.00;95844.13;10572404;27;2620;-72
2023/11/08 04:35:55;;;;;;;;;;;;;;;5.13;100.00;95842.00;10559958;27;2572;-73
2023/11/08 04:40:57;;;;;;;;;;;;;;;5.14;100.00;95851.63;10563150;27;2561;-75
2023/11/08 04:46:00;;;;;;;;;;;;;;;5.32;100.00;95838.09;10569603;28;4843;-71
2023/11/08 04:51:02;;;;;;;;;;;;;;;5.35;100.00;95842.97;10561307;28;2556;-72
2023/11/08 04:56:05;;;;;;;;;;;;;;;5.33;100.00;95846.91;10571568;27;2747;-72
2023/11/08 05:01:07;;;;;;;;;;;;;;;5.40;100.00;95848.38;10566999;28;2714;-72
2023/11/08 05:06:10;;;;;;;;;;;;;;;5.41;100.00;95847.34;10566777;27;2620;-73
2023/11/08 05:11:12;;;;;;;;;;;;;;;5.45;100.00;95846.84;10542831;28;2656;-73
2023/11/08 05:16:15;;;;;;;;;;;;;;;5.38;100.00;95845.16;10567943;28;2691;-75
2023/11/08 05:21:17;;;;;;;;;;;;;;;5.29;100.00;95854.59;10561627;28;2561;-71
2023/11/08 05:26:20;;;;;;;;;;;;;;;5.20;100.00;95849.84;10541929;28;2728;-73
2023/11/08 05:31:23;;;;;;;;;;;;;;;5.20;100.00;95860.50;10558743;28;2621;-71
2023/11/08 05:36:25;;;;;;;;;;;;;;;5.24;100.00;95856.34;10561210;28;2636;-73
2023/11/08 05:41:28;;;;;;;;;;;;;;;5.30;100.00;95842.06;10562472;28;2569;-72
2023/11/08 05:46:30;;;;;;;;;;;;;;;5.35;100.00;95850.97;10559417;27;4930;-73
2023/11/08 05:51:33;;;;;;;;;;;;;;;5.45;100.00;95845.00;10540356;27;2572;-75
2023/11/08 05:56:36;;;;;;;;;;;;;;;5.49;100.00;95848.00;10546448;27;2594;-73
2023/11/08 06:01:38;;;;;;;;;;;;;;;5.43;100.00;95855.91;10565645;27;2735;-72
2023/11/08 06:06:40;;;;;;;;;;;;;;;5.37;100.00;95862.19;10571463;27;2806;-72
2023/11/08 06:11:43;;;;;;;;;;;;;;;5.32;100.00;95870.09;10563813;27;2900;-72
2023/11/08 06:16:47;;;;;;;;;;;;;;;5.28;100.00;95874.28;10568292;27;2646;-74
2023/11/08 06:21:49;;;;;;;;;;;;;;;5.28;100.00;95874.28;10560826;27;2561;-72
2023/11/08 06:26:52;;;;;;;;;;;;;;;5.30;100.00;95880.19;10560646;27;2529;-72
2023/11/08 06:31:56;;;;;;;;;;;;;;;5.47;100.00;95876.75;10569346;27;2663;-73
2023/11/08 06:36:59;;;;;;;;;;;;;;;5.57;100.00;95885.75;10562500;27;2642;-73
2023/11/08 06:42:01;;;;;;;;;;;;;;;5.65;100.00;95900.53;10565286;27;2694;-73
2023/11/08 06:47:04;;;;;;;;;;;;;;;5.79;100.00;95891.22;10572134;27;5017;-74
2023/11/08 06:52:06;;;;;;;;;;;;;;;5.97;100.00;95893.66;10566686;27;2721;-72
2023/11/08 06:57:09;;;;;;;;;;;;;;;6.16;100.00;95888.91;10539932;27;2586;-73
2023/11/08 07:02:11;;;;;;;;;;;;;;;6.29;100.00;95900.31;10569359;27;3032;-72
2023/11/08 07:07:14;;;;;;;;;;;;;;;6.54;100.00;95907.91;10562896;27;2529;-72
2023/11/08 07:12:16;;;;;;;;;;;;;;;6.68;100.00;95919.88;10562783;27;2643;-71
2023/11/08 07:17:20;;;;;;;;;;;;;;;6.83;100.00;95922.78;10562417;27;2608;-72
2023/11/08 07:22:22;;;;;;;;;;;;;;;6.89;100.00;95926.31;10564083;27;2656;-72
2023/11/08 07:27:24;;;;;;;;;;;;;;;7.11;100.00;95924.47;10569747;27;2752;-71
2023/11/08 07:32:29;;;;;;;;;;;;;;;7.20;100.00;95916.84;10563146;27;2597;-71
2023/11/08 07:37:33;;;;;;;;;;;;;;;7.34;100.00;95918.09;10549070;27;2670;-71
2023/11/08 07:42:37;;;;;;;;;;;;;;;7.40;100.00;95914.41;10565756;27;2583;-72
2023/11/08 07:47:41;;;;;;;;;;;;;;;7.65;100.00;95910.41;10571015;27;2553;-73
2023/11/08 07:52:44;;;;;;;;;;;;;;;7.69;100.00;95908.84;10565656;27;2679;-72
2023/11/08 07:57:46;;;;;;;;;;;;;;;7.87;100.00;95911.16;10562951;27;2715;-70
2023/11/08 08:02:50;;;;;;;;;;;;;;;7.96;100.00;95906.19;10573597;27;2614;-71
2023/11/08 08:07:54;;;;;;;;;;;;;;;8.06;100.00;95917.78;10571005;27;2587;-72
2023/11/08 08:12:57;;;;;;;;;;;;;;;8.09;100.00;95917.28;10562939;27;2578;-71
2023/11/08 08:18:00;;;;;;;;;;;;;;;8.34;100.00;95923.91;10567709;27;2612;-71
2023/11/08 08:23:05;;;;;;;;;;;;;;;8.44;100.00;95926.69;10569924;27;2682;-73
2023/11/08 08:28:08;;;;;;;;;;;;;;;8.44;100.00;95921.34;10568358;27;2558;-72
2023/11/08 08:33:10;;;;;;;;;;;;;;;8.89;100.00;95928.06;10573213;28;2568;-71
2023/11/08 08:38:13;;;;;;;;;;;;;;;9.01;100.00;95925.19;10561487;27;2581;-72
2023/11/08 08:43:15;;;;;;;;;;;;;;;9.11;100.00;95931.44;10563439;28;4878;-71
2023/11/08 08:48:18;;;;;;;;;;;;;;;9.21;100.00;95930.66;10567937;28;2572;-71
2023/11/08 08:53:20;;;;;;;;;;;;;;;9.23;100.00;95938.47;10563359;28;2718;-71
2023/11/08 08:58:23;;;;;;;;;;;;;;;9.33;100.00;95936.63;10571150;28;2777;-71
2023/11/08 09:03:26;;;;;;;;;;;;;;;9.54;100.00;95928.66;10546325;28;2595;-72
2023/11/08 09:08:28;;;;;;;;;;;;;;;9.66;100.00;95938.09;10566965;28;2682;-71
2023/11/08 09:13:32;;;;;;;;;;;;;;;9.43;100.00;95933.19;10564464;28;2758;-71
2023/11/08 09:18:35;;;;;;;;;;;;;;;9.44;100.00;95943.66;10566531;27;2620;-72
2023/11/08 09:23:37;;;;;;;;;;;;;;;9.31;100.00;95946.03;10579584;27;2551;-71
2023/11/08 09:28:40;;;;;;;;;;;;;;;9.62;100.00;95945.09;10572332;27;2581;-71
2023/11/08 09:33:42;;;;;;;;;;;;;;;9.88;100.00;95931.72;10572440;27;2701;-71
2023/11/08 09:38:45;;;;;;;;;;;;;;;9.88;100.00;95934.41;10573023;27;2567;-71
2023/11/08 09:43:49;;;;;;;;;;;;;;;9.95;100.00;95937.66;10571892;27;4811;-73
2023/11/08 09:48:53;;;;;;;;;;;;;;;9.97;100.00;95943.56;10574665;27;2608;-72
2023/11/08 09:53:56;;;;;;;;;;;;;;;9.82;100.00;95935.47;10568100;27;2590;-72
2023/11/08 09:58:59;;;;;;;;;;;;;;;9.88;100.00;95939.78;10566016;27;2692;-72
2023/11/08 10:04:01;;;;;;;;;;;;;;;9.96;100.00;95936.59;10564573;27;2694;-72
2023/11/08 10:09:05;;;;;;;;;;;;;;;9.89;100.00;95936.03;10571756;27;2584;-72
2023/11/08 10:14:08;;;;;;;;;;;;;;;10.44;100.00;95931.84;10575252;27;2582;-73
2023/11/08 10:19:14;;;;;;;;;;;;;;;10.75;100.00;95933.44;10574191;27;2817;-72
2023/11/08 10:24:36;;;;;;;;;;;;;;;10.80;100.00;95909.22;10571719;27;2544;-72
2023/11/08 10:29:39;;;;;;;;;;;;;;;10.62;100.00;95904.41;10562472;27;2665;-72
2023/11/08 10:34:41;;;;;;;;;;;;;;;10.13;100.00;95907.59;10563527;27;2689;-73
2023/11/08 10:39:44;;;;;;;;;;;;;;;9.82;100.00;95897.88;10549550;27;2614;-72
2023/11/08 10:44:46;;;;;;;;;;;;;;;9.71;100.00;95887.13;10570354;27;4704;-72
2023/11/08 10:49:50;;;;;;;;;;;;;;;9.49;100.00;95883.84;10571248;27;2584;-72
2023/11/08 10:54:53;;;;;;;;;;;;;;;9.43;100.00;95883.03;10571607;27;2586;-72
2023/11/08 10:59:56;;;;;;;;;;;;;;;9.50;100.00;95869.34;10572576;27;2726;-72
2023/11/08 11:04:59;;;;;;;;;;;;;;;9.50;100.00;95871.25;10554843;27;2677;-72
2023/11/08 11:10:04;;;;;;;;;;;;;;;9.63;100.00;95865.38;10571674;27;2981;-70
2023/11/08 11:15:09;;;;;;;;;;;;;;;9.74;100.00;95851.72;10568617;27;3044;-73
2023/11/08 11:20:16;;;;;;;;;;;;;;;10.11;100.00;95845.28;10568754;27;2556;-71
2023/11/08 11:25:19;;;;;;;;;;;;;;;10.14;100.00;95834.00;10569876;27;2590;-72
2023/11/08 11:30:26;;;;;;;;;;;;;;;10.33;100.00;95833.50;10564868;27;2683;-71
2023/11/08 11:35:29;;;;;;;;;;;;;;;10.38;100.00;95838.88;10547637;27;2643;-71
2023/11/08 11:40:35;;;;;;;;;;;;;;;10.09;100.00;95833.19;10565349;27;2576;-71
2023/11/08 11:45:43;;;;;;;;;;;;;;;9.83;100.00;95840.44;10567455;27;4921;-71
2023/11/08 11:50:47;;;;;;;;;;;;;;;9.75;100.00;95839.09;10564673;27;2715;-72
2023/11/08 11:55:50;;;;;;;;;;;;;;;9.55;100.00;95834.50;10567123;27;2699;-74
2023/11/08 12:00:53;;;;;;;;;;;;;;;9.64;100.00;95832.88;10563514;27;2742;-72
2023/11/08 12:05:56;;;;;;;;;;;;;;;9.74;100.00;95824.88;10564865;27;2580;-72
2023/11/08 12:10:59;;;;;;;;;;;;;;;9.97;100.00;95820.03;10565126;27;2599;-70
2023/11/08 12:16:05;;;;;;;;;;;;;;;10.30;100.00;95813.31;10557450;27;2679;-72
2023/11/08 12:21:09;;;;;;;;;;;;;;;10.29;100.00;95812.53;10561364;27;2604;-75
2023/11/08 12:26:12;;;;;;;;;;;;;;;10.45;100.00;95799.09;10564338;27;2561;-73
2023/11/08 12:31:14;;;;;;;;;;;;;;;10.52;100.00;95802.28;10561275;27;2716;-73
2023/11/08 12:36:17;;;;;;;;;;;;;;;10.72;100.00;95788.78;10567094;28;2642;-71
2023/11/08 12:41:19;;;;;;;;;;;;;;;10.68;100.00;95793.09;10566801;27;2808;-72
2023/11/08 12:46:22;;;;;;;;;;;;;;;10.69;100.00;95800.09;10569277;28;2655;-72
2023/11/08 12:51:43;;;;;;;;;;;;;;;10.78;100.00;95786.91;10573179;28;2552;-71
2023/11/08 12:56:45;;;;;;;;;;;;;;;10.86;100.00;95797.06;10573248;27;2565;-72
2023/11/08 13:01:49;;;;;;;;;;;;;;;10.94;100.00;95788.47;10573570;27;2633;-71
2023/11/08 13:06:52;;;;;;;;;;;;;;;10.94;100.00;95784.94;10561265;27;2687;-72
2023/11/08 13:11:55;;;;;;;;;;;;;;;10.74;100.00;95778.56;10571739;27;2635;-72
2023/11/08 13:17:01;;;;;;;;;;;;;;;10.55;100.00;95774.84;10566891;27;2738;-71
2023/11/08 13:22:05;;;;;;;;;;;;;;;10.57;100.00;95775.41;10572055;27;2656;-73
2023/11/08 13:27:08;;;;;;;;;;;;;;;10.46;100.00;95771.13;10577006;27;2560;-72
2023/11/08 13:32:11;;;;;;;;;;;;;;;10.37;100.00;95760.13;10573921;27;2608;-71
2023/11/08 13:37:14;;;;;;;;;;;;;;;10.14;100.00;95756.09;10569972;27;2627;-74
2023/11/08 13:42:16;;;;;;;;;;;;;;;9.83;100.00;95749.16;10569355;27;4684;-72
2023/11/08 13:47:19;;;;;;;;;;;;;;;9.65;100.00;95737.06;10562390;27;2573;-71
2023/11/08 13:52:21;;;;;;;;;;;;;;;9.63;100.00;95744.59;10568808;27;2589;-71
2023/11/08 13:57:23;;;;;;;;;;;;;;;9.62;100.00;95740.31;10569409;27;2635;-71
2023/11/08 14:02:26;;;;;;;;;;;;;;;9.58;100.00;95737.34;10548023;27;2613;-71
2023/11/08 14:07:29;;;;;;;;;;;;;;;9.59;100.00;95735.47;10568719;27;2612;-73
2023/11/08 14:12:31;;;;;;;;;;;;;;;9.58;100.00;95736.53;10560388;27;2603;-71
2023/11/08 14:17:34;;;;;;;;;;;;;;;9.64;100.00;95733.59;10564685;27;2585;-74
2023/11/08 14:22:38;;;;;;;;;;;;;;;9.50;100.00;95729.81;10547850;27;2598;-71
2023/11/08 14:27:41;;;;;;;;;;;;;;;9.40;100.00;95727.94;10567206;27;2652;-71
2023/11/08 14:32:43;;;;;;;;;;;;;;;9.39;100.00;95728.19;10576330;27;2588;-72
2023/11/08 14:37:46;;;;;;;;;;;;;;;9.40;100.00;95729.81;10568593;27;2573;-72
2023/11/08 14:42:49;;;;;;;;;;;;;;;9.37;100.00;95725.00;10571918;27;2676;-73
2023/11/08 14:47:51;;;;;;;;;;;;;;;9.32;100.00;95720.41;10565912;27;2597;-73
2023/11/08 14:52:54;;;;;;;;;;;;;;;9.26;100.00;95726.03;10553165;27;2713;-71
2023/11/08 14:57:56;;;;;;;;;;;;;;;9.25;100.00;95724.44;10560064;27;2657;-72
2023/11/08 15:02:59;;;;;;;;;;;;;;;9.14;100.00;95732.44;10562971;27;2655;-72
2023/11/08 15:08:04;;;;;;;;;;;;;;;9.02;100.00;95717.69;10569561;27;2544;-70
2023/11/08 15:13:27;;;;;;;;;;;;;;;8.89;100.00;95717.09;10570666;27;2608;-72
2023/11/08 15:18:30;;;;;;;;;;;;;;;8.77;100.00;95710.38;10567757;27;2640;-72
2023/11/08 15:23:33;;;;;;;;;;;;;;;8.61;100.00;95707.66;10544678;27;2559;-72
2023/11/08 15:28:36;;;;;;;;;;;;;;;8.47;100.00;95709.22;10570393;27;2614;-72
2023/11/08 15:33:38;;;;;;;;;;;;;;;8.25;100.00;95697.81;10562530;27;2682;-70
2023/11/08 15:38:41;;;;;;;;;;;;;;;8.09;100.00;95705.78;10564757;27;2654;-71
2023/11/08 15:43:44;;;;;;;;;;;;;;;7.92;100.00;95702.44;10570097;27;4960;-71
2023/11/08 15:48:47;;;;;;;;;;;;;;;7.68;100.00;95703.88;10567026;27;2631;-70
2023/11/08 15:53:50;;;;;;;;;;;;;;;7.52;100.00;95703.78;10562674;27;2679;-71
2023/11/08 15:58:53;;;;;;;;;;;;;;;7.43;100.00;95697.28;10565411;27;2557;-72
2023/11/08 16:03:57;;;;;;;;;;;;;;;7.15;100.00;95697.56;10569445;27;2638;-72
2023/11/08 16:09:00;;;;;;;;;;;;;;;7.03;100.00;95698.53;10565581;27;2652;-71
2023/11/08 16:14:04;;;;;;;;;;;;;;;6.84;100.00;95689.25;10574223;27;2663;-71
2023/11/08 16:19:07;;;;;;;;;;;;;;;6.61;100.00;95695.69;10568395;27;2688;-71
2023/11/08 16:24:10;;;;;;;;;;;;;;;6.44;100.00;95685.09;10558216;27;2688;-70
2023/11/08 16:29:12;;;;;;;;;;;;;;;6.33;100.00;95702.03;10561398;27;2636;-71
2023/11/08 16:34:35;;;;;;;;;;;;;;;6.25;100.00;95696.34;10565696;28;2522;-72
2023/11/08 16:39:38;;;;;;;;;;;;;;;6.14;100.00;95695.38;10564664;27;2583;-70
2023/11/08 16:44:40;;;;;;;;;;;;;;;6.00;100.00;95689.59;10546656;28;4818;-72
2023/11/08 16:49:46;;;;;;;;;;;;;;;5.93;100.00;95688.97;10561715;28;2626;-71
2023/11/08 16:54:52;;;;;;;;;;;;;;;5.87;100.00;95690.72;10563919;28;2655;-76
2023/11/08 16:59:55;;;;;;;;;;;;;;;5.77;100.00;95684.44;10559080;28;2631;-72
2023/11/08 17:04:58;;;;;;;;;;;;;;;5.76;100.00;95682.81;10567355;28;2556;-72
2023/11/08 17:10:02;;;;;;;;;;;;;;;5.72;100.00;95697.69;10563500;28;2682;-73
2023/11/08 17:15:04;;;;;;;;;;;;;;;5.67;100.00;95701.94;10560524;28;2660;-72
2023/11/08 17:20:08;;;;;;;;;;;;;;;5.59;100.00;95715.66;10560757;28;2921;-73
2023/11/08 17:25:11;;;;;;;;;;;;;;;5.47;100.00;95711.44;10559348;28;2561;-73
2023/11/08 17:30:15;;;;;;;;;;;;;;;5.35;100.00;95715.03;10565817;28;2686;-71
2023/11/08 17:35:18;;;;;;;;;;;;;;;5.34;100.00;95707.25;10541115;27;2601;-73
2023/11/08 17:40:20;;;;;;;;;;;;;;;5.28;100.00;95710.88;10566463;27;2652;-72
2023/11/08 17:45:23;;;;;;;;;;;;;;;5.17;100.00;95712.59;10562396;27;4656;-71
2023/11/08 17:50:26;;;;;;;;;;;;;;;5.07;100.00;95713.19;10568178;27;2640;-71
2023/11/08 17:55:28;;;;;;;;;;;;;;;4.96;100.00;95702.59;10562689;27;2645;-72
2023/11/08 18:00:31;;;;;;;;;;;;;;;4.94;100.00;95707.38;10573111;27;2632;-72
2023/11/08 18:05:33;;;;;;;;;;;;;;;4.89;100.00;95695.56;10569681;27;2621;-72
2023/11/08 18:10:36;;;;;;;;;;;;;;;4.85;100.00;95710.44;10573889;28;1690;-73
2023/11/08 18:15:38;;;;;;;;;;;;;;;4.87;100.00;95713.66;10553490;28;1906;-73
2023/11/08 18:20:41;;;;;;;;;;;;;;;4.77;100.00;95702.84;10570546;28;2039;-71
2023/11/08 18:25:43;;;;;;;;;;;;;;;4.77;100.00;95708.16;10575640;27;1475;-73
2023/11/08 18:30:45;;;;;;;;;;;;;;;4.78;100.00;95704.44;10566692;27;1706;-72
2023/11/08 18:35:48;;;;;;;;;;;;;;;4.70;100.00;95699.47;10570212;28;1933;-72
2023/11/08 18:40:54;;;;;;;;;;;;;;;4.73;100.00;95704.34;10572171;28;1415;-73
2023/11/08 18:45:56;;;;;;;;;;;;;;;4.79;100.00;95699.94;10558891;28;1504;-71
2023/11/08 18:51:08;;;;;;;;;;;;;;;5.01;100.00;95697.38;10563685;27;2748;-71
2023/11/08 18:56:12;;;;;;;;;;;;;;;5.09;100.00;95683.66;10569826;27;1909;-73
2023/11/08 19:01:17;;;;;;;;;;;;;;;5.05;100.00;95682.53;10568883;28;1615;-72
2023/11/08 19:06:20;;;;;;;;;;;;;;;4.88;100.00;95677.97;10573105;27;2018;-74
2023/11/08 19:11:23;;;;;;;;;;;;;;;4.76;100.00;95663.91;10572426;27;1444;-72
2023/11/08 19:16:25;;;;;;;;;;;;;;;4.77;100.00;95662.88;10569853;27;1975;-71
2023/11/08 19:21:28;;;;;;;;;;;;;;;4.70;100.00;95662.19;10575756;27;1464;-72
2023/11/08 19:26:31;;;;;;;;;;;;;;;4.66;100.00;95655.75;10570651;27;1534;-72
2023/11/08 19:31:34;;;;;;;;;;;;;;;4.50;100.00;95648.53;10570035;27;1349;-72
2023/11/08 19:36:36;;;;;;;;;;;;;;;4.34;100.00;95644.78;10573771;27;1971;-72
2023/11/08 19:41:39;;;;;;;;;;;;;;;4.29;100.00;95640.16;10564177;28;1476;-72
2023/11/08 19:46:42;;;;;;;;;;;;;;;4.16;100.00;95636.97;10565211;28;4832;-72
2023/11/08 19:51:46;;;;;;;;;;;;;;;4.21;100.00;95624.59;10569665;28;1643;-72
2023/11/08 19:56:50;;;;;;;;;;;;;;;4.42;100.00;95614.31;10567307;28;1909;-72
2023/11/08 20:01:54;;;;;;;;;;;;;;;4.29;100.00;95616.22;10570660;28;1669;-72
2023/11/08 20:06:58;;;;;;;;;;;;;;;4.42;100.00;95603.69;10567424;28;1460;-73
2023/11/08 20:12:01;;;;;;;;;;;;;;;4.37;100.00;95595.59;10562758;28;1614;-74
2023/11/08 20:17:05;;;;;;;;;;;;;;;4.37;100.00;95587.59;10570017;28;1953;-71
2023/11/08 20:22:12;;;;;;;;;;;;;;;4.40;100.00;95587.16;10546416;28;1721;-72
2023/11/08 20:27:14;;;;;;;;;;;;;;;4.29;100.00;95578.97;10565081;27;1914;-72
2023/11/08 20:32:17;;;;;;;;;;;;;;;4.22;100.00;95566.88;10565089;28;1751;-73
2023/11/08 20:37:20;;;;;;;;;;;;;;;4.20;100.00;95577.75;10573757;28;1980;-72
2023/11/08 20:42:23;;;;;;;;;;;;;;;4.21;100.00;95566.06;10564035;28;4704;-72
2023/11/08 20:47:25;;;;;;;;;;;;;;;4.02;100.00;95561.97;10561314;28;2604;-74
2023/11/08 20:52:28;;;;;;;;;;;;;;;4.02;100.00;95564.63;10557458;28;2599;-71
2023/11/08 20:57:31;;;;;;;;;;;;;;;4.03;100.00;95555.59;10543977;28;2658;-76
2023/11/08 21:02:33;;;;;;;;;;;;;;;4.02;100.00;95548.69;10563328;28;2632;-71
2023/11/08 21:07:35;;;;;;;;;;;;;;;3.93;100.00;95548.22;10555090;28;2599;-70
2023/11/08 21:12:38;;;;;;;;;;;;;;;3.99;100.00;95546.47;10554022;28;2963;-72
2023/11/08 21:17:40;;;;;;;;;;;;;;;3.85;100.00;95537.97;10569847;27;2659;-73
2023/11/08 21:22:43;;;;;;;;;;;;;;;3.80;100.00;95533.38;10571823;27;2730;-73
2023/11/08 21:27:47;;;;;;;;;;;;;;;3.79;100.00;95536.25;10562632;27;2596;-75
2023/11/08 21:32:50;;;;;;;;;;;;;;;3.61;100.00;95529.25;10567094;27;2604;-76
2023/11/08 21:37:52;;;;;;;;;;;;;;;3.48;100.00;95522.38;10561700;27;2632;-74
2023/11/08 21:42:55;;;;;;;;;;;;;;;3.42;100.00;95499.38;10566625;27;4803;-73
2023/11/08 21:47:58;;;;;;;;;;;;;;;3.46;100.00;95505.84;10571675;27;2733;-73
2023/11/08 21:53:00;;;;;;;;;;;;;;;3.50;100.00;95495.56;10564705;27;2558;-72
2023/11/08 21:58:03;;;;;;;;;;;;;;;3.45;100.00;95493.63;10572077;27;2754;-73
2023/11/08 22:03:05;;;;;;;;;;;;;;;3.39;100.00;95477.81;10571864;27;2779;-72
2023/11/08 22:08:08;;;;;;;;;;;;;;;3.32;100.00;95482.44;10572284;27;2643;-71
2023/11/08 22:13:11;;;;;;;;;;;;;;;3.27;100.00;95466.41;10568462;27;2589;-72
2023/11/08 22:18:13;;;;;;;;;;;;;;;3.29;100.00;95457.16;10565857;27;2632;-71
2023/11/08 22:23:16;;;;;;;;;;;;;;;3.29;100.00;95451.84;10554703;27;2590;-72
2023/11/08 22:28:18;;;;;;;;;;;;;;;3.34;100.00;95445.81;10568201;27;2809;-76
2023/11/08 22:33:21;;;;;;;;;;;;;;;3.28;100.00;95438.78;10567278;27;2620;-75
2023/11/08 22:38:23;;;;;;;;;;;;;;;3.25;100.00;95438.22;10568200;27;2633;-72
2023/11/08 22:43:26;;;;;;;;;;;;;;;3.15;100.00;95434.56;10565639;27;4838;-72
2023/11/08 22:48:29;;;;;;;;;;;;;;;3.20;100.00;95435.47;10565447;27;2576;-72
2023/11/08 22:53:31;;;;;;;;;;;;;;;3.31;100.00;95422.38;10571213;27;2691;-70
2023/11/08 22:58:33;;;;;;;;;;;;;;;3.28;100.00;95412.22;10569890;27;2683;-71
2023/11/08 23:03:36;;;;;;;;;;;;;;;3.13;100.00;95412.75;10571655;27;2588;-72
2023/11/08 23:08:39;;;;;;;;;;;;;;;3.03;100.00;95415.19;10569949;27;2600;-72
2023/11/08 23:13:44;;;;;;;;;;;;;;;3.09;100.00;95401.78;10569886;27;2663;-72
2023/11/08 23:18:47;;;;;;;;;;;;;;;2.99;100.00;95404.25;10567787;27;2720;-71
2023/11/08 23:23:51;;;;;;;;;;;;;;;2.88;100.00;95402.41;10562065;27;2576;-70
2023/11/08 23:28:55;;;;;;;;;;;;;;;2.96;100.00;95397.53;10563708;27;2748;-70
2023/11/08 23:33:58;;;;;;;;;;;;;;;2.92;100.00;95395.56;10569273;27;2596;-71
2023/11/08 23:39:03;;;;;;;;;;;;;;;2.90;100.00;95390.50;10566813;27;2573;-71
2023/11/08 23:44:08;;;;;;;;;;;;;;;2.97;100.00;95379.75;10564414;27;5066;-70
2023/11/08 23:49:10;;;;;;;;;;;;;;;3.04;100.00;95380.44;10559969;27;2664;-72
2023/11/08 23:54:13;;;;;;;;;;;;;;;2.97;100.00;95374.44;10560159;27;2607;-73
2023/11/08 23:59:16;;;;;;;;;;;;;;;2.95;100.00;95369.38;10568822;27;2710;-74
